^^
Saratoga-Weather Station Historical Data
Daily Summary for May 8, 2021 Units:  Metric    English   Both
Daily Weekly Monthly Yearly Custom
  High: Low: Average:
Temperature: 20 °C 14.6 °C 17.1 °C
Dew Point: 16.6 °C 12.9 °C 14.6 °C
Humidity: 93% 72% 86%
Wind Speed: 16.3km/h 0km/h 1.5km/h
Wind Gust: 20.9km/h - -
Wind- - SSW
Pressure: 1020.7 hPa 1017.3 hPa -
Precipitation: 3.0 mm    
Historical Graphs
 
 
Tabular Data for May 8, 2021
Time Temperature Dew Point Pressure Wind Wind Speed Wind Gust Humidity Rainfall Rate (Hourly) solar
00:01 17.7 °C 14.2 °C 1017.3 hPa Calm     80% 0.0 mm 0 W/m2
00:06 17.6 °C 14.1 °C 1017.6 hPa Calm     80% 0.0 mm 0 W/m2
00:11 17.6 °C 14.1 °C 1017.6 hPa Calm     80% 0.0 mm 0 W/m2
00:16 17.6 °C 14.1 °C 1017.6 hPa Calm     80% 0.0 mm 0 W/m2
00:21 17.6 °C 14.1 °C 1017.6 hPa Calm     80% 0.0 mm 0 W/m2
00:26 17.6 °C 14.1 °C 1017.6 hPa Calm     80% 0.0 mm 0 W/m2
00:31 17.6 °C 14.3 °C 1017.6 hPa Calm     81% 0.0 mm 0 W/m2
00:36 17.5 °C 14.2 °C 1017.6 hPa Calm     81% 0.0 mm 0 W/m2
00:41 17.4 °C 14.1 °C 1017.6 hPa Calm     81% 0.0 mm 0 W/m2
00:46 17.3 °C 14 °C 1017.6 hPa Calm     81% 0.0 mm 0 W/m2
00:51 17.3 °C 14 °C 1017.6 hPa Calm     81% 0.0 mm 0 W/m2
00:56 17.3 °C 14 °C 1017.6 hPa Calm     81% 0.0 mm 0 W/m2
01:01 17.3 °C 14.2 °C 1017.6 hPa Calm     82% 0.0 mm 0 W/m2
01:06 17.3 °C 14.2 °C 1017.6 hPa Calm     82% 0.0 mm 0 W/m2
01:11 17.3 °C 14.2 °C 1017.6 hPa Calm     82% 0.0 mm 0 W/m2
01:16 17.3 °C 14.2 °C 1017.6 hPa Calm     82% 0.0 mm 0 W/m2
01:21 17.2 °C 14.3 °C 1017.6 hPa Calm   1.6 km/h 83% 0.0 mm 0 W/m2
01:26 17.2 °C 14.3 °C 1017.6 hPa Calm   1.6 km/h 83% 0.0 mm 0 W/m2
01:31 17.1 °C 14.2 °C 1017.6 hPa Calm     83% 0.0 mm 0 W/m2
01:37 17 °C 14.1 °C 1017.6 hPa Calm   1.6 km/h 83% 0.0 mm 0 W/m2
01:42 16.9 °C 14.2 °C 1017.6 hPa WNW 1.4 km/h 3.2 km/h 84% 0.0 mm 0 W/m2
01:47 16.7 °C 14 °C 1017.6 hPa Calm   1.6 km/h 84% 0.0 mm 0 W/m2
01:52 16.6 °C 13.9 °C 1017.6 hPa Calm   3.2 km/h 84% 0.0 mm 0 W/m2
01:57 16.5 °C 14 °C 1017.6 hPa Calm   1.6 km/h 85% 0.0 mm 0 W/m2
02:02 16.4 °C 13.9 °C 1017.3 hPa WNW 1.4 km/h 3.2 km/h 85% 0.0 mm 0 W/m2
02:07 16.2 °C 13.7 °C 1017.3 hPa Calm     85% 0.0 mm 0 W/m2
02:12 16.1 °C 13.8 °C 1017.3 hPa Calm     86% 0.0 mm 0 W/m2
02:17 16.1 °C 13.8 °C 1017.6 hPa Calm     86% 0.0 mm 0 W/m2
02:22 16.1 °C 13.8 °C 1017.3 hPa SE 1.4 km/h 3.2 km/h 86% 0.0 mm 0 W/m2
02:27 16.1 °C 13.8 °C 1017.3 hPa Calm   1.6 km/h 86% 0.0 mm 0 W/m2
02:32 16.1 °C 13.8 °C 1017.6 hPa Calm     86% 0.0 mm 0 W/m2
02:37 16.1 °C 13.8 °C 1017.6 hPa Calm     86% 0.0 mm 0 W/m2
02:42 16.1 °C 13.8 °C 1017.6 hPa Calm     86% 0.0 mm 0 W/m2
02:47 16.1 °C 13.8 °C 1017.6 hPa Calm     86% 0.0 mm 0 W/m2
02:52 16.1 °C 13.8 °C 1017.6 hPa Calm     86% 0.0 mm 0 W/m2
02:57 16.1 °C 13.6 °C 1017.6 hPa Calm     85% 0.0 mm 0 W/m2
03:02 16 °C 13.7 °C 1017.6 hPa Calm     86% 0.0 mm 0 W/m2
03:07 15.9 °C 13.6 °C 1017.6 hPa Calm     86% 0.0 mm 0 W/m2
03:12 15.9 °C 13.6 °C 1017.6 hPa SE 1.4 km/h 3.2 km/h 86% 0.0 mm 0 W/m2
03:17 15.9 °C 13.6 °C 1017.6 hPa Calm     86% 0.0 mm 0 W/m2
03:22 15.9 °C 13.6 °C 1017.6 hPa Calm   3.2 km/h 86% 0.0 mm 0 W/m2
03:27 15.9 °C 13.6 °C 1017.6 hPa Calm     86% 0.0 mm 0 W/m2
03:32 15.8 °C 13.6 °C 1017.6 hPa Calm     87% 0.0 mm 0 W/m2
03:37 15.8 °C 13.6 °C 1017.6 hPa Calm     87% 0.0 mm 0 W/m2
03:42 15.8 °C 13.6 °C 1017.6 hPa Calm     87% 0.0 mm 0 W/m2
03:47 15.8 °C 13.6 °C 1017.6 hPa Calm   1.6 km/h 87% 0.0 mm 0 W/m2
03:52 15.8 °C 13.6 °C 1017.6 hPa Calm     87% 0.0 mm 0 W/m2
03:57 15.7 °C 13.5 °C 1017.6 hPa Calm   1.6 km/h 87% 0.0 mm 0 W/m2
04:02 15.6 °C 13.4 °C 1017.6 hPa Calm     87% 0.0 mm 0 W/m2
04:07 15.6 °C 13.4 °C 1017.6 hPa Calm     87% 0.0 mm 0 W/m2
04:12 15.6 °C 13.4 °C 1017.6 hPa Calm     87% 0.0 mm 0 W/m2
04:17 15.4 °C 13.2 °C 1017.3 hPa Calm     87% 0.0 mm 0 W/m2
04:22 15.3 °C 13.1 °C 1017.6 hPa Calm     87% 0.0 mm 0 W/m2
04:27 15.3 °C 13.1 °C 1017.3 hPa Calm     87% 0.0 mm 0 W/m2
04:32 15.2 °C 13 °C 1017.3 hPa Calm     87% 0.0 mm 0 W/m2
04:37 15.2 °C 13 °C 1017.6 hPa Calm     87% 0.0 mm 0 W/m2
04:42 15.1 °C 13 °C 1017.6 hPa Calm     87% 0.0 mm 0 W/m2
04:47 15.1 °C 13.1 °C 1017.6 hPa Calm     88% 0.0 mm 0 W/m2
04:52 15 °C 13 °C 1017.6 hPa Calm     88% 0.0 mm 0 W/m2
04:57 14.9 °C 12.9 °C 1017.6 hPa Calm     88% 0.0 mm 0 W/m2
05:02 14.9 °C 12.9 °C 1017.6 hPa Calm     88% 0.0 mm 0 W/m2
05:07 14.8 °C 13 °C 1017.6 hPa Calm     89% 0.0 mm 0 W/m2
05:12 14.8 °C 13 °C 1017.6 hPa Calm     89% 0.0 mm 0 W/m2
05:17 14.8 °C 13 °C 1017.6 hPa Calm     89% 0.0 mm 0 W/m2
05:22 14.8 °C 13 °C 1017.6 hPa Calm     89% 0.0 mm 0 W/m2
05:27 14.8 °C 13 °C 1017.3 hPa Calm     89% 0.0 mm 0 W/m2
05:32 14.8 °C 13 °C 1017.6 hPa Calm     89% 0.0 mm 0 W/m2
05:37 14.8 °C 13.2 °C 1017.6 hPa Calm     90% 0.0 mm 0 W/m2
05:42 14.8 °C 13.2 °C 1017.6 hPa Calm     90% 0.0 mm 0 W/m2
05:47 14.9 °C 13.1 °C 1017.6 hPa Calm     89% 0.0 mm 0 W/m2
05:52 15.1 °C 13.5 °C 1017.6 hPa ESE 3.2 km/h 6.4 km/h 90% 0.0 mm 0 W/m2
05:57 15.2 °C 13.4 °C 1017.6 hPa ESE 3.2 km/h 3.2 km/h 89% 0.0 mm 0 W/m2
06:02 15.3 °C 13.5 °C 1017.6 hPa Calm   6.4 km/h 89% 0.0 mm 5 W/m2
06:07 15.3 °C 13.3 °C 1017.6 hPa ESE 1.4 km/h 3.2 km/h 88% 0.0 mm 9 W/m2
06:12 15.3 °C 13.3 °C 1017.6 hPa Calm     88% 0.0 mm 12 W/m2
06:17 15.3 °C 13.3 °C 1017.6 hPa Calm   3.2 km/h 88% 0.0 mm 16 W/m2
06:22 15.3 °C 13.3 °C 1017.6 hPa Calm     88% 0.0 mm 21 W/m2
06:27 15.4 °C 13.6 °C 1017.6 hPa Calm     89% 0.0 mm 28 W/m2
06:32 15.4 °C 13.6 °C 1017.6 hPa Calm     89% 0.0 mm 35 W/m2
06:37 15.4 °C 13.6 °C 1017.6 hPa ESE 1.4 km/h 1.6 km/h 89% 0.0 mm 44 W/m2
06:42 15.5 °C 13.7 °C 1017.6 hPa Calm     89% 0.0 mm 49 W/m2
06:47 15.6 °C 13.6 °C 1017.6 hPa Calm     88% 0.0 mm 56 W/m2
06:52 15.7 °C 13.9 °C 1017.6 hPa Calm     89% 0.0 mm 65 W/m2
06:57 15.8 °C 14 °C 1018.0 hPa Calm     89% 0.0 mm 62 W/m2
07:02 15.8 °C 13.8 °C 1018.0 hPa Calm     88% 0.0 mm 72 W/m2
07:07 15.9 °C 13.9 °C 1018.0 hPa Calm     88% 0.0 mm 79 W/m2
07:12 16.2 °C 14.2 °C 1018.0 hPa Calm   3.2 km/h 88% 0.0 mm 77 W/m2
07:17 16.3 °C 14.3 °C 1018.3 hPa Calm     88% 0.0 mm 67 W/m2
07:22 16.4 °C 14.4 °C 1018.3 hPa Calm   3.2 km/h 88% 0.0 mm 63 W/m2
07:27 16.4 °C 14.2 °C 1018.3 hPa Calm     87% 0.0 mm 74 W/m2
07:32 16.5 °C 14.3 °C 1018.3 hPa Calm     87% 0.0 mm 81 W/m2
07:37 16.6 °C 14.4 °C 1018.3 hPa Calm     87% 0.0 mm 81 W/m2
07:42 16.7 °C 14.5 °C 1018.3 hPa Calm   1.6 km/h 87% 0.0 mm 81 W/m2
07:47 16.8 °C 14.6 °C 1018.6 hPa Calm     87% 0.0 mm 74 W/m2
07:52 16.8 °C 14.4 °C 1018.6 hPa Calm   1.6 km/h 86% 0.0 mm 62 W/m2
07:57 16.8 °C 14.4 °C 1018.6 hPa Calm     86% 0.0 mm 47 W/m2
08:02 16.9 °C 14.5 °C 1018.6 hPa Calm   1.6 km/h 86% 0.0 mm 47 W/m2
08:07 17 °C 14.6 °C 1018.6 hPa Calm     86% 0.0 mm 46 W/m2
08:12 17 °C 14.8 °C 1019.0 hPa East 1.4 km/h 1.6 km/h 87% 0.0 mm 44 W/m2
08:17 17 °C 14.5 °C 1019.0 hPa West 3.2 km/h 3.2 km/h 85% 0.0 mm 51 W/m2
08:22 17.1 °C 14.2 °C 1019.0 hPa WNW 3.2 km/h 9.7 km/h 83% 0.0 mm 56 W/m2
08:27 17.1 °C 14 °C 1019.0 hPa West 6.4 km/h 11.3 km/h 82% 0.0 mm 65 W/m2
08:32 17.1 °C 14 °C 1018.6 hPa WNW 3.2 km/h 9.7 km/h 82% 0.0 mm 86 W/m2
08:37 17.1 °C 14 °C 1018.6 hPa WNW 4.7 km/h 6.4 km/h 82% 0.0 mm 113 W/m2
08:42 17.2 °C 14.1 °C 1018.6 hPa West 4.7 km/h 4.8 km/h 82% 0.0 mm 156 W/m2
08:47 17.3 °C 14.2 °C 1019.0 hPa West 4.7 km/h 6.4 km/h 82% 0.0 mm 190 W/m2
08:53 17.4 °C 14.3 °C 1019.0 hPa WSW 3.2 km/h 3.2 km/h 82% 0.0 mm 183 W/m2
08:58 17.5 °C 14.4 °C 1019.0 hPa WNW 1.4 km/h 4.8 km/h 82% 0.0 mm 142 W/m2
09:03 17.6 °C 14.3 °C 1018.6 hPa WNW 6.4 km/h 6.4 km/h 81% 0.0 mm 134 W/m2
09:08 17.6 °C 14.3 °C 1019.0 hPa WNW 3.2 km/h 6.4 km/h 81% 0.0 mm 132 W/m2
09:13 17.6 °C 14.3 °C 1019.0 hPa West 3.2 km/h 11.3 km/h 81% 0.0 mm 130 W/m2
09:18 17.6 °C 14.3 °C 1019.0 hPa West 1.4 km/h 6.4 km/h 81% 0.0 mm 137 W/m2
09:23 17.7 °C 14.2 °C 1019.0 hPa West 1.4 km/h 11.3 km/h 80% 0.0 mm 134 W/m2
09:28 17.6 °C 14.3 °C 1019.3 hPa WSW 4.7 km/h 9.7 km/h 81% 0.0 mm 134 W/m2
09:33 17.6 °C 14.5 °C 1019.3 hPa WNW 1.4 km/h 11.3 km/h 82% 0.0 mm 127 W/m2
09:38 17.5 °C 14.4 °C 1019.3 hPa West 16.3 km/h 20.9 km/h 82% 0.0 mm 125 W/m2
09:43 17.4 °C 14.3 °C 1019.3 hPa West 3.2 km/h 9.7 km/h 82% 0.0 mm 116 W/m2
09:48 17.4 °C 14.3 °C 1019.6 hPa SW 7.9 km/h 20.9 km/h 82% 0.0 mm 97 W/m2
09:53 17.4 °C 14.3 °C 1019.6 hPa West 6.4 km/h 6.4 km/h 82% 0.0 mm 104 W/m2
09:58 17.5 °C 14.4 °C 1019.6 hPa WNW 3.2 km/h 4.8 km/h 82% 0.0 mm 98 W/m2
10:03 17.5 °C 14.4 °C 1019.3 hPa NW 4.7 km/h 8 km/h 82% 0.0 mm 90 W/m2
10:08 17.5 °C 14.4 °C 1019.3 hPa West 11.1 km/h 11.3 km/h 82% 0.0 mm 84 W/m2
10:13 17.5 °C 14.4 °C 1019.3 hPa WNW 4.7 km/h 6.4 km/h 82% 0.0 mm 86 W/m2
10:18 17.5 °C 14.4 °C 1019.3 hPa West 3.2 km/h 9.7 km/h 82% 0.0 mm 88 W/m2
10:23 17.5 °C 14.4 °C 1019.3 hPa WNW 3.2 km/h 6.4 km/h 82% 0.0 mm 90 W/m2
10:28 17.5 °C 14.4 °C 1019.6 hPa West 4.7 km/h 6.4 km/h 82% 0.0 mm 88 W/m2
10:33 17.4 °C 14.5 °C 1019.6 hPa WSW 3.2 km/h 6.4 km/h 83% 0.0 mm 83 W/m2
10:38 17.4 °C 14.5 °C 1019.6 hPa WNW 4.7 km/h 8 km/h 83% 0.0 mm 83 W/m2
10:43 17.4 °C 14.5 °C 1019.6 hPa NW 3.2 km/h 4.8 km/h 83% 0.0 mm 83 W/m2
10:48 17.4 °C 14.7 °C 1019.6 hPa West 1.4 km/h 8 km/h 84% 0.0 mm 77 W/m2
10:53 17.4 °C 14.9 °C 1019.6 hPa WNW 3.2 km/h 3.2 km/h 85% 0.0 mm 76 W/m2
10:58 17.4 °C 14.9 °C 1019.6 hPa West 4.7 km/h 9.7 km/h 85% 0.0 mm 81 W/m2
11:03 17.3 °C 14.9 °C 1019.3 hPa WSW 4.7 km/h 4.8 km/h 86% 0.0 mm 90 W/m2
11:08 17.3 °C 14.9 °C 1019.6 hPa West 4.7 km/h 8 km/h 86% 0.0 mm 100 W/m2
11:13 17.3 °C 14.9 °C 1019.6 hPa WSW 3.2 km/h 4.8 km/h 86% 0.0 mm 127 W/m2
11:18 17.3 °C 15.1 °C 1019.6 hPa WSW 4.7 km/h 8 km/h 87% 0.0 mm 162 W/m2
11:23 17.3 °C 15.3 °C 1019.6 hPa West 3.2 km/h 4.8 km/h 88% 0.0 mm 153 W/m2
11:28 17.3 °C 15.1 °C 1019.6 hPa SW 6.4 km/h 6.4 km/h 87% 0.2 mm 188 W/m2
11:33 17.4 °C 15.4 °C 1019.6 hPa West 4.7 km/h 8 km/h 88% 0.2 mm 202 W/m2
11:38 17.4 °C 15.4 °C 1019.3 hPa West 3.2 km/h 6.4 km/h 88% 0.2 mm 227 W/m2
11:43 17.6 °C 15.6 °C 1019.3 hPa WSW 3.2 km/h 8 km/h 88% 0.2 mm 223 W/m2
11:48 17.7 °C 15.7 °C 1019.3 hPa West 1.4 km/h 6.4 km/h 88% 0.2 mm 260 W/m2
11:53 17.9 °C 15.5 °C 1019.3 hPa NW 6.4 km/h 6.4 km/h 86% 0.2 mm 248 W/m2
11:58 18.1 °C 15.5 °C 1019.3 hPa WNW 4.7 km/h 4.8 km/h 85% 0.2 mm 221 W/m2
12:03 18.2 °C 15.6 °C 1019.3 hPa WNW 1.4 km/h 3.2 km/h 85% 0.2 mm 202 W/m2
12:08 18.3 °C 15.7 °C 1019.6 hPa West 3.2 km/h 4.8 km/h 85% 0.2 mm 183 W/m2
12:13 18.4 °C 15.6 °C 1019.6 hPa WSW 1.4 km/h 4.8 km/h 84% 0.2 mm 151 W/m2
12:18 18.4 °C 15.8 °C 1019.6 hPa West 3.2 km/h 6.4 km/h 85% 0.2 mm 171 W/m2
12:23 18.4 °C 15.6 °C 1019.6 hPa West 3.2 km/h 4.8 km/h 84% 0.2 mm 258 W/m2
12:28 18.5 °C 15.6 °C 1019.6 hPa Calm   6.4 km/h 83% 0.0 mm 278 W/m2
12:33 18.7 °C 15.8 °C 1019.6 hPa Calm     83% 0.0 mm 262 W/m2
12:38 18.8 °C 15.3 °C 1019.6 hPa Calm     80% 0.0 mm 239 W/m2
12:43 18.9 °C 15.2 °C 1019.6 hPa Calm   1.6 km/h 79% 0.0 mm 269 W/m2
12:48 19.1 °C 15.6 °C 1019.6 hPa Calm     80% 0.0 mm 239 W/m2
12:53 19.3 °C 15.6 °C 1019.6 hPa NW 1.4 km/h 3.2 km/h 79% 0.0 mm 243 W/m2
12:58 19.4 °C 15.5 °C 1019.6 hPa ESE 1.4 km/h 6.4 km/h 78% 0.0 mm 260 W/m2
13:03 19.5 °C 15.6 °C 1019.6 hPa ESE 3.2 km/h 3.2 km/h 78% 0.0 mm 318 W/m2
13:08 19.6 °C 15.9 °C 1019.6 hPa SE 3.2 km/h 6.4 km/h 79% 0.0 mm 364 W/m2
13:13 19.7 °C 15.8 °C 1019.6 hPa Calm   4.8 km/h 78% 0.0 mm 490 W/m2
13:18 19.9 °C 16.1 °C 1019.6 hPa ESE 3.2 km/h 4.8 km/h 79% 0.0 mm 438 W/m2
13:23 19.9 °C 16.5 °C 1020.0 hPa East 3.2 km/h 9.7 km/h 81% 0.0 mm 348 W/m2
13:28 19.9 °C 16.5 °C 1020.0 hPa SE 1.4 km/h 6.4 km/h 81% 0.0 mm 373 W/m2
13:33 19.9 °C 16.5 °C 1020.0 hPa Calm   4.8 km/h 81% 0.0 mm 438 W/m2
13:38 19.9 °C 16.3 °C 1020.0 hPa ENE 1.4 km/h 6.4 km/h 80% 0.0 mm 323 W/m2
13:43 20 °C 16.6 °C 1019.6 hPa Calm   3.2 km/h 81% 0.0 mm 394 W/m2
13:48 20 °C 16.4 °C 1020.0 hPa Calm   3.2 km/h 80% 0.0 mm 301 W/m2
13:53 19.9 °C 16.5 °C 1020.0 hPa East 1.4 km/h 3.2 km/h 81% 0.0 mm 223 W/m2
13:58 19.8 °C 16.1 °C 1020.0 hPa East 1.4 km/h 3.2 km/h 79% 0.0 mm 179 W/m2
14:03 19.7 °C 16.3 °C 1020.0 hPa ENE 3.2 km/h 6.4 km/h 81% 0.0 mm 153 W/m2
14:08 19.6 °C 16.4 °C 1020.0 hPa East 1.4 km/h 9.7 km/h 82% 0.0 mm 141 W/m2
14:13 19.3 °C 16.3 °C 1020.0 hPa Calm   3.2 km/h 83% 0.0 mm 135 W/m2
14:18 19.2 °C 16.2 °C 1020.0 hPa South 1.4 km/h 3.2 km/h 83% 0.0 mm 121 W/m2
14:23 19.1 °C 16.1 °C 1020.0 hPa ESE 3.2 km/h 4.8 km/h 83% 0.0 mm 93 W/m2
14:28 18.9 °C 15.9 °C 1020.0 hPa SE 1.4 km/h 3.2 km/h 83% 0.0 mm 83 W/m2
14:33 18.8 °C 16 °C 1020.0 hPa ENE 1.4 km/h 3.2 km/h 84% 0.0 mm 111 W/m2
14:38 18.7 °C 16.1 °C 1020.0 hPa Calm   6.4 km/h 85% 0.0 mm 118 W/m2
14:43 18.7 °C 16.3 °C 1020.0 hPa East 3.2 km/h 3.2 km/h 86% 0.0 mm 98 W/m2
14:48 18.7 °C 16.5 °C 1020.0 hPa Calm     87% 0.2 mm 79 W/m2
14:53 18.5 °C 16.3 °C 1020.0 hPa East 3.2 km/h 4.8 km/h 87% 0.2 mm 77 W/m2
14:58 18.2 °C 16 °C 1020.0 hPa NE 1.4 km/h 3.2 km/h 87% 0.2 mm 88 W/m2
15:03 18.1 °C 16.1 °C 1020.3 hPa Calm     88% 0.2 mm 100 W/m2
15:08 17.9 °C 15.9 °C 1020.3 hPa ENE 3.2 km/h 4.8 km/h 88% 0.5 mm 120 W/m2
15:13 17.7 °C 15.9 °C 1020.3 hPa ENE 1.4 km/h 4.8 km/h 89% 0.5 mm 142 W/m2
15:18 17.6 °C 15.9 °C 1020.0 hPa ENE 1.4 km/h 3.2 km/h 90% 1.0 mm 135 W/m2
15:23 17.5 °C 16 °C 1020.0 hPa East 3.2 km/h 4.8 km/h 91% 1.3 mm 139 W/m2
15:28 17.4 °C 15.9 °C 1020.0 hPa ESE 1.4 km/h 3.2 km/h 91% 1.5 mm 142 W/m2
15:33 17.3 °C 15.8 °C 1020.0 hPa Calm   3.2 km/h 91% 1.5 mm 169 W/m2
15:38 17.3 °C 15.8 °C 1020.0 hPa East 1.4 km/h 4.8 km/h 91% 1.5 mm 206 W/m2
15:43 17.1 °C 15.1 °C 1020.0 hPa Calm   1.6 km/h 88% 1.5 mm 251 W/m2
15:48 17.2 °C 15.2 °C 1020.0 hPa Calm   4.8 km/h 88% 1.5 mm 352 W/m2
15:53 17.3 °C 15.3 °C 1019.6 hPa Calm     88% 1.5 mm 369 W/m2
15:58 17.5 °C 15.3 °C 1019.6 hPa ENE 1.4 km/h 1.6 km/h 87% 1.5 mm 274 W/m2
16:03 17.7 °C 15.7 °C 1019.6 hPa Calm     88% 1.5 mm 229 W/m2
16:08 17.8 °C 15.6 °C 1019.6 hPa Calm   1.6 km/h 87% 1.5 mm 221 W/m2
16:13 18.1 °C 16.1 °C 1019.6 hPa Calm   1.6 km/h 88% 1.3 mm 234 W/m2
16:18 18.1 °C 15.7 °C 1019.6 hPa Calm   1.6 km/h 86% 0.8 mm 221 W/m2
16:23 18.2 °C 16 °C 1019.6 hPa SE 3.2 km/h 3.2 km/h 87% 0.5 mm 199 W/m2
16:28 18.3 °C 15.9 °C 1019.6 hPa Calm   3.2 km/h 86% 0.5 mm 188 W/m2
16:33 18.3 °C 15.9 °C 1019.6 hPa NE 1.4 km/h 1.6 km/h 86% 0.2 mm 186 W/m2
16:38 18.3 °C 15.9 °C 1019.6 hPa NNE 1.4 km/h 3.2 km/h 86% 0.2 mm 186 W/m2
16:43 18.3 °C 16.1 °C 1019.6 hPa NNW 1.4 km/h 3.2 km/h 87% 0.0 mm 218 W/m2
16:48 18.3 °C 16.1 °C 1019.3 hPa East 1.4 km/h 3.2 km/h 87% 0.0 mm 160 W/m2
16:53 18.3 °C 16.1 °C 1019.3 hPa ENE 1.4 km/h 1.6 km/h 87% 0.0 mm 158 W/m2
16:58 18.3 °C 15.9 °C 1019.3 hPa ENE 1.4 km/h 4.8 km/h 86% 0.0 mm 165 W/m2
17:03 18.3 °C 15.9 °C 1019.3 hPa East 3.2 km/h 4.8 km/h 86% 0.0 mm 200 W/m2
17:08 18.3 °C 15.9 °C 1019.3 hPa ENE 1.4 km/h 4.8 km/h 86% 0.0 mm 232 W/m2
17:13 18.3 °C 15.7 °C 1019.3 hPa ESE 3.2 km/h 4.8 km/h 85% 0.0 mm 316 W/m2
17:18 18.5 °C 16.1 °C 1019.6 hPa East 1.4 km/h 4.8 km/h 86% 0.0 mm 316 W/m2
17:23 18.6 °C 16 °C 1019.6 hPa ENE 4.7 km/h 6.4 km/h 85% 0.0 mm 274 W/m2
17:28 18.7 °C 15.9 °C 1019.6 hPa Calm   4.8 km/h 84% 0.0 mm 278 W/m2
17:33 18.8 °C 16 °C 1019.6 hPa ESE 3.2 km/h 6.4 km/h 84% 0.0 mm 320 W/m2
17:38 18.9 °C 15.9 °C 1019.6 hPa ENE 1.4 km/h 4.8 km/h 83% 0.0 mm 360 W/m2
17:43 19.2 °C 16.4 °C 1019.6 hPa ESE 1.4 km/h 1.6 km/h 84% 0.0 mm 446 W/m2
17:48 19.4 °C 16.6 °C 1019.6 hPa NNE 8 km/h 8 km/h 84% 0.0 mm 306 W/m2
17:53 19.3 °C 15.6 °C 1019.6 hPa North 3.2 km/h 4.8 km/h 79% 0.0 mm 338 W/m2
17:58 19.4 °C 15.5 °C 1019.6 hPa Calm   4.8 km/h 78% 0.0 mm 373 W/m2
18:03 19.4 °C 15.5 °C 1019.6 hPa Calm   6.4 km/h 78% 0.0 mm 214 W/m2
18:08 19.3 °C 15.6 °C 1019.6 hPa Calm   1.6 km/h 79% 0.0 mm 190 W/m2
18:13 19.2 °C 15.5 °C 1019.3 hPa ESE 1.4 km/h 3.2 km/h 79% 0.0 mm 178 W/m2
18:18 19 °C 15.7 °C 1019.6 hPa ESE 3.2 km/h 3.2 km/h 81% 0.0 mm 185 W/m2
18:23 18.9 °C 15.9 °C 1019.6 hPa ESE 1.4 km/h 3.2 km/h 83% 0.0 mm 227 W/m2
18:28 18.9 °C 15.8 °C 1019.3 hPa ESE 1.4 km/h 1.6 km/h 82% 0.0 mm 418 W/m2
18:33 19.1 °C 15.6 °C 1019.3 hPa ENE 3.2 km/h 4.8 km/h 80% 0.0 mm 374 W/m2
18:38 19.4 °C 15.5 °C 1019.3 hPa SE 1.4 km/h 3.2 km/h 78% 0.0 mm 388 W/m2
18:43 19.8 °C 16.2 °C 1019.0 hPa South 1.4 km/h 3.2 km/h 80% 0.0 mm 339 W/m2
18:48 19.8 °C 14.8 °C 1019.0 hPa Calm   1.6 km/h 73% 0.0 mm 329 W/m2
18:53 19.9 °C 14.7 °C 1019.0 hPa Calm   4.8 km/h 72% 0.0 mm 236 W/m2
18:58 20 °C 15.2 °C 1019.0 hPa Calm   1.6 km/h 74% 0.0 mm 72 W/m2
19:03 19.6 °C 14.6 °C 1019.3 hPa Calm   4.8 km/h 73% 0.0 mm 49 W/m2
19:08 19.1 °C 15 °C 1019.6 hPa Calm   1.6 km/h 77% 0.0 mm 33 W/m2
19:13 18.7 °C 14.4 °C 1019.6 hPa SSE 1.4 km/h 3.2 km/h 76% 0.0 mm 16 W/m2
19:18 18.4 °C 14.5 °C 1019.6 hPa Calm   1.6 km/h 78% 0.0 mm 11 W/m2
19:23 18.1 °C 14.6 °C 1020.0 hPa WNW 6.4 km/h 11.3 km/h 80% 0.0 mm 5 W/m2
19:28 17.8 °C 14.7 °C 1020.0 hPa WNW 1.4 km/h 6.4 km/h 82% 0.0 mm 5 W/m2
19:33 17.7 °C 14.6 °C 1020.0 hPa NW 1.4 km/h 11.3 km/h 82% 0.0 mm 7 W/m2
19:38 17.7 °C 14.8 °C 1019.6 hPa Calm   1.6 km/h 83% 0.0 mm 9 W/m2
19:43 17.7 °C 14.8 °C 1020.0 hPa NW 1.4 km/h 4.8 km/h 83% 0.0 mm 9 W/m2
19:48 17.7 °C 15 °C 1020.0 hPa SW 1.4 km/h 4.8 km/h 84% 0.0 mm 12 W/m2
19:53 17.6 °C 15.2 °C 1020.0 hPa Calm   1.6 km/h 86% 0.0 mm 16 W/m2
19:58 17.4 °C 15.2 °C 1020.0 hPa Calm   4.8 km/h 87% 0.0 mm 21 W/m2
20:03 17.4 °C 15.4 °C 1020.0 hPa Calm   3.2 km/h 88% 0.2 mm 23 W/m2
20:08 17.3 °C 15.5 °C 1020.0 hPa Calm     89% 0.5 mm 26 W/m2
20:13 17.2 °C 15.4 °C 1020.0 hPa Calm   1.6 km/h 89% 0.5 mm 28 W/m2
20:18 17.1 °C 15.4 °C 1019.6 hPa Calm     90% 0.5 mm 28 W/m2
20:23 17 °C 15.5 °C 1019.6 hPa Calm     91% 0.8 mm 26 W/m2
20:28 16.8 °C 15.3 °C 1020.0 hPa West 1.4 km/h 3.2 km/h 91% 0.8 mm 23 W/m2
20:33 16.8 °C 15.5 °C 1020.0 hPa West 4.7 km/h 4.8 km/h 92% 0.8 mm 21 W/m2
20:38 16.6 °C 15.1 °C 1020.0 hPa Calm   1.6 km/h 91% 0.8 mm 19 W/m2
20:43 16.6 °C 15.3 °C 1020.0 hPa West 3.2 km/h 3.2 km/h 92% 0.8 mm 19 W/m2
20:48 16.4 °C 14.9 °C 1020.0 hPa Calm   1.6 km/h 91% 0.8 mm 19 W/m2
20:53 16.3 °C 15 °C 1019.6 hPa Calm     92% 1.0 mm 39 W/m2
20:58 16.3 °C 15 °C 1019.6 hPa Calm     92% 1.0 mm 25 W/m2
21:03 16.3 °C 15 °C 1019.6 hPa West 1.4 km/h 1.6 km/h 92% 0.8 mm 26 W/m2
21:08 16.3 °C 15 °C 1019.6 hPa West 3.2 km/h 3.2 km/h 92% 0.5 mm 32 W/m2
21:13 16.2 °C 15.1 °C 1019.6 hPa Calm   3.2 km/h 93% 0.5 mm 28 W/m2
21:18 16.2 °C 15.1 °C 1020.0 hPa West 1.4 km/h 3.2 km/h 93% 0.5 mm 18 W/m2
21:23 16.1 °C 15 °C 1020.0 hPa West 3.2 km/h 3.2 km/h 93% 0.2 mm 12 W/m2
21:28 16 °C 14.9 °C 1020.0 hPa WSW 1.4 km/h 4.8 km/h 93% 0.2 mm 9 W/m2
21:33 15.8 °C 14.7 °C 1020.3 hPa West 1.4 km/h 4.8 km/h 93% 0.2 mm 7 W/m2
21:38 15.7 °C 14.4 °C 1020.3 hPa Calm   1.6 km/h 92% 0.2 mm 5 W/m2
21:43 15.5 °C 14.2 °C 1020.0 hPa Calm   4.8 km/h 92% 0.2 mm 0 W/m2
21:48 15.4 °C 14.1 °C 1020.3 hPa West 1.4 km/h 6.4 km/h 92% 0.2 mm 0 W/m2
21:53 15.3 °C 13.8 °C 1020.3 hPa WSW 4.7 km/h 8 km/h 91% 0.0 mm 0 W/m2
21:58 15.3 °C 13.8 °C 1020.3 hPa SW 4.7 km/h 9.7 km/h 91% 0.0 mm 0 W/m2
22:03 15.3 °C 13.7 °C 1020.3 hPa WSW 7.9 km/h 12.9 km/h 90% 0.0 mm 0 W/m2
22:08 15.4 °C 13.8 °C 1020.3 hPa WNW 4.7 km/h 12.9 km/h 90% 0.0 mm 0 W/m2
22:13 15.4 °C 13.8 °C 1020.3 hPa WNW 4.7 km/h 11.3 km/h 90% 0.0 mm 0 W/m2
22:18 15.4 °C 13.8 °C 1020.7 hPa West 3.2 km/h 8 km/h 90% 0.0 mm 0 W/m2
22:23 15.4 °C 13.8 °C 1020.7 hPa West 3.2 km/h 11.3 km/h 90% 0.0 mm 0 W/m2
22:28 15.4 °C 13.6 °C 1020.7 hPa North 1.4 km/h 6.4 km/h 89% 0.0 mm 0 W/m2
22:33 15.5 °C 13.7 °C 1020.7 hPa ESE 1.4 km/h 8 km/h 89% 0.0 mm 0 W/m2
22:38 15.6 °C 14 °C 1020.7 hPa Calm     90% 0.0 mm 0 W/m2
22:43 15.5 °C 13.9 °C 1020.7 hPa Calm     90% 0.0 mm 0 W/m2
22:48 15.4 °C 13.9 °C 1020.7 hPa Calm   1.6 km/h 91% 0.0 mm 0 W/m2
22:53 15.3 °C 13.8 °C 1020.7 hPa Calm   3.2 km/h 91% 0.0 mm 0 W/m2
22:58 15.3 °C 14 °C 1020.7 hPa WNW 3.2 km/h 4.8 km/h 92% 0.0 mm 0 W/m2
23:03 15.2 °C 13.9 °C 1020.7 hPa Calm   4.8 km/h 92% 0.0 mm 0 W/m2
23:08 15.1 °C 13.8 °C 1020.7 hPa WNW 1.4 km/h 6.4 km/h 92% 0.0 mm 0 W/m2
23:13 15.1 °C 13.8 °C 1020.7 hPa Calm   3.2 km/h 92% 0.0 mm 0 W/m2
23:18 15 °C 13.7 °C 1020.7 hPa Calm   4.8 km/h 92% 0.0 mm 0 W/m2
23:23 14.9 °C 13.6 °C 1020.7 hPa NW 1.4 km/h 4.8 km/h 92% 0.0 mm 0 W/m2
23:28 14.9 °C 13.6 °C 1020.7 hPa WNW 3.2 km/h 3.2 km/h 92% 0.0 mm 0 W/m2
23:33 14.9 °C 13.6 °C 1020.7 hPa West 1.4 km/h 4.8 km/h 92% 0.0 mm 0 W/m2
23:38 14.8 °C 13.5 °C 1020.7 hPa West 1.4 km/h 3.2 km/h 92% 0.0 mm 0 W/m2
23:43 14.7 °C 13.4 °C 1020.7 hPa Calm   4.8 km/h 92% 0.0 mm 0 W/m2
23:48 14.7 °C 13.6 °C 1020.7 hPa Calm     93% 0.0 mm 0 W/m2
23:53 14.7 °C 13.6 °C 1020.7 hPa Calm   1.6 km/h 93% 0.0 mm 0 W/m2
23:58 14.6 °C 13.5 °C 1020.7 hPa Calm     93% 0.0 mm 0 W/m2
Juneau County Weather
Compliments of Weather Underground - 4 mb